sensor_id;sensor_type;location;lat;lon;timestamp;temperature;humidity
19033;DHT22;9649;51.042;13.804;2022-07-17T00:02:24;12.40;99.90
19033;DHT22;9649;51.042;13.804;2022-07-17T00:07:27;12.30;99.90
19033;DHT22;9649;51.042;13.804;2022-07-17T00:12:30;12.30;99.90
19033;DHT22;9649;51.042;13.804;2022-07-17T00:17:34;12.20;99.90
19033;DHT22;9649;51.042;13.804;2022-07-17T00:22:37;12.10;99.90
19033;DHT22;9649;51.042;13.804;2022-07-17T00:27:40;12.00;99.90
19033;DHT22;9649;51.042;13.804;2022-07-17T00:32:45;11.90;99.90
19033;DHT22;9649;51.042;13.804;2022-07-17T00:37:49;11.80;99.90
19033;DHT22;9649;51.042;13.804;2022-07-17T00:42:52;11.80;99.90
19033;DHT22;9649;51.042;13.804;2022-07-17T00:47:58;11.80;99.90
19033;DHT22;9649;51.042;13.804;2022-07-17T00:53:01;11.70;99.90
19033;DHT22;9649;51.042;13.804;2022-07-17T00:58:04;11.70;99.90
19033;DHT22;9649;51.042;13.804;2022-07-17T01:03:09;11.50;99.90
19033;DHT22;9649;51.042;13.804;2022-07-17T01:08:12;11.40;99.90
19033;DHT22;9649;51.042;13.804;2022-07-17T01:13:16;11.30;99.90
19033;DHT22;9649;51.042;13.804;2022-07-17T01:18:22;11.20;99.90
19033;DHT22;9649;51.042;13.804;2022-07-17T01:23:26;11.20;99.90
19033;DHT22;9649;51.042;13.804;2022-07-17T01:28:29;11.10;99.90
19033;DHT22;9649;51.042;13.804;2022-07-17T01:33:32;11.20;99.90
19033;DHT22;9649;51.042;13.804;2022-07-17T01:38:36;11.10;99.90
19033;DHT22;9649;51.042;13.804;2022-07-17T01:43:39;11.00;99.90
19033;DHT22;9649;51.042;13.804;2022-07-17T01:48:42;11.00;99.90
19033;DHT22;9649;51.042;13.804;2022-07-17T01:53:46;10.90;99.90
19033;DHT22;9649;51.042;13.804;2022-07-17T01:58:49;10.80;99.90
19033;DHT22;9649;51.042;13.804;2022-07-17T02:03:51;10.80;99.90
19033;DHT22;9649;51.042;13.804;2022-07-17T02:08:55;10.70;99.90
19033;DHT22;9649;51.042;13.804;2022-07-17T02:13:58;10.70;99.90
19033;DHT22;9649;51.042;13.804;2022-07-17T02:19:01;10.70;99.90
19033;DHT22;9649;51.042;13.804;2022-07-17T02:24:05;10.70;99.90
19033;DHT22;9649;51.042;13.804;2022-07-17T02:29:08;10.90;99.90
19033;DHT22;9649;51.042;13.804;2022-07-17T02:34:11;11.30;99.90
19033;DHT22;9649;51.042;13.804;2022-07-17T02:39:15;11.20;99.90
19033;DHT22;9649;51.042;13.804;2022-07-17T02:44:17;11.10;99.90
19033;DHT22;9649;51.042;13.804;2022-07-17T02:49:20;11.00;99.90
19033;DHT22;9649;51.042;13.804;2022-07-17T02:54:24;11.00;99.90
19033;DHT22;9649;51.042;13.804;2022-07-17T02:59:27;11.00;99.90
19033;DHT22;9649;51.042;13.804;2022-07-17T03:04:30;10.80;99.90
19033;DHT22;9649;51.042;13.804;2022-07-17T03:09:34;10.80;99.90
19033;DHT22;9649;51.042;13.804;2022-07-17T03:14:37;10.70;99.90
19033;DHT22;9649;51.042;13.804;2022-07-17T03:19:41;10.60;99.90
19033;DHT22;9649;51.042;13.804;2022-07-17T03:24:45;10.60;99.90
19033;DHT22;9649;51.042;13.804;2022-07-17T03:29:47;10.80;99.90
19033;DHT22;9649;51.042;13.804;2022-07-17T03:34:50;10.60;99.90
19033;DHT22;9649;51.042;13.804;2022-07-17T03:39:54;10.90;99.90
19033;DHT22;9649;51.042;13.804;2022-07-17T03:44:57;10.80;99.90
19033;DHT22;9649;51.042;13.804;2022-07-17T03:50:00;10.80;99.90
19033;DHT22;9649;51.042;13.804;2022-07-17T03:55:05;10.80;99.90
19033;DHT22;9649;51.042;13.804;2022-07-17T04:00:09;10.90;99.90
19033;DHT22;9649;51.042;13.804;2022-07-17T04:05:12;10.80;99.90
19033;DHT22;9649;51.042;13.804;2022-07-17T04:10:16;10.60;99.90
19033;DHT22;9649;51.042;13.804;2022-07-17T04:15:18;10.70;99.90
19033;DHT22;9649;51.042;13.804;2022-07-17T04:20:35;11.00;99.90
19033;DHT22;9649;51.042;13.804;2022-07-17T04:25:39;11.20;99.90
19033;DHT22;9649;51.042;13.804;2022-07-17T04:30:42;11.20;99.90
19033;DHT22;9649;51.042;13.804;2022-07-17T04:35:45;11.50;99.90
19033;DHT22;9649;51.042;13.804;2022-07-17T04:40:49;11.60;99.90
19033;DHT22;9649;51.042;13.804;2022-07-17T04:45:52;11.70;99.90
19033;DHT22;9649;51.042;13.804;2022-07-17T04:50:55;11.90;99.90
19033;DHT22;9649;51.042;13.804;2022-07-17T04:55:59;12.10;99.90
19033;DHT22;9649;51.042;13.804;2022-07-17T05:01:02;12.20;99.90
19033;DHT22;9649;51.042;13.804;2022-07-17T05:06:04;12.50;99.90
19033;DHT22;9649;51.042;13.804;2022-07-17T05:11:09;12.80;99.90
19033;DHT22;9649;51.042;13.804;2022-07-17T05:16:12;13.10;99.90
19033;DHT22;9649;51.042;13.804;2022-07-17T05:21:15;13.40;99.90
19033;DHT22;9649;51.042;13.804;2022-07-17T05:26:19;13.60;99.90
19033;DHT22;9649;51.042;13.804;2022-07-17T05:31:21;13.80;99.90
19033;DHT22;9649;51.042;13.804;2022-07-17T05:36:24;14.10;99.90
19033;DHT22;9649;51.042;13.804;2022-07-17T05:41:31;14.50;99.90
19033;DHT22;9649;51.042;13.804;2022-07-17T05:46:34;14.60;99.90
19033;DHT22;9649;51.042;13.804;2022-07-17T05:51:37;14.90;99.90
19033;DHT22;9649;51.042;13.804;2022-07-17T05:56:41;15.20;99.90
19033;DHT22;9649;51.042;13.804;2022-07-17T06:01:43;15.40;99.90
19033;DHT22;9649;51.042;13.804;2022-07-17T06:06:46;15.60;99.90
19033;DHT22;9649;51.042;13.804;2022-07-17T06:11:51;15.70;99.90
19033;DHT22;9649;51.042;13.804;2022-07-17T06:16:53;16.10;99.90
19033;DHT22;9649;51.042;13.804;2022-07-17T06:21:56;16.30;99.90
19033;DHT22;9649;51.042;13.804;2022-07-17T06:27:00;16.30;99.90
19033;DHT22;9649;51.042;13.804;2022-07-17T06:32:03;16.40;99.90
19033;DHT22;9649;51.042;13.804;2022-07-17T06:37:06;16.60;99.90
19033;DHT22;9649;51.042;13.804;2022-07-17T06:42:10;16.80;99.90
19033;DHT22;9649;51.042;13.804;2022-07-17T06:47:14;16.70;99.90
19033;DHT22;9649;51.042;13.804;2022-07-17T06:52:17;16.80;99.90
19033;DHT22;9649;51.042;13.804;2022-07-17T06:57:21;16.90;99.90
19033;DHT22;9649;51.042;13.804;2022-07-17T07:02:24;17.10;99.90
19033;DHT22;9649;51.042;13.804;2022-07-17T07:07:26;17.30;99.90
19033;DHT22;9649;51.042;13.804;2022-07-17T07:12:30;17.60;99.90
19033;DHT22;9649;51.042;13.804;2022-07-17T07:17:33;17.80;99.90
19033;DHT22;9649;51.042;13.804;2022-07-17T07:22:36;17.90;99.90
19033;DHT22;9649;51.042;13.804;2022-07-17T07:27:41;18.40;99.90
19033;DHT22;9649;51.042;13.804;2022-07-17T07:32:43;18.80;99.90
19033;DHT22;9649;51.042;13.804;2022-07-17T07:37:46;18.90;99.90
19033;DHT22;9649;51.042;13.804;2022-07-17T07:42:50;19.10;99.90
19033;DHT22;9649;51.042;13.804;2022-07-17T07:47:53;19.10;99.90
19033;DHT22;9649;51.042;13.804;2022-07-17T07:52:56;19.20;99.90
19033;DHT22;9649;51.042;13.804;2022-07-17T07:58:04;19.50;99.90
19033;DHT22;9649;51.042;13.804;2022-07-17T08:03:07;19.80;99.90
19033;DHT22;9649;51.042;13.804;2022-07-17T08:08:10;20.40;99.90
19033;DHT22;9649;51.042;13.804;2022-07-17T08:13:14;21.40;99.90
19033;DHT22;9649;51.042;13.804;2022-07-17T08:18:17;21.80;99.90
19033;DHT22;9649;51.042;13.804;2022-07-17T08:23:20;22.00;99.90
19033;DHT22;9649;51.042;13.804;2022-07-17T08:28:25;21.70;98.80
19033;DHT22;9649;51.042;13.804;2022-07-17T08:33:27;21.50;99.90
19033;DHT22;9649;51.042;13.804;2022-07-17T08:38:30;21.60;98.40
19033;DHT22;9649;51.042;13.804;2022-07-17T08:43:35;21.60;98.60
19033;DHT22;9649;51.042;13.804;2022-07-17T08:48:46;21.30;99.20
19033;DHT22;9649;51.042;13.804;2022-07-17T08:53:49;21.50;99.40
19033;DHT22;9649;51.042;13.804;2022-07-17T08:58:53;21.70;96.80
19033;DHT22;9649;51.042;13.804;2022-07-17T09:03:58;21.70;97.00
19033;DHT22;9649;51.042;13.804;2022-07-17T09:09:08;22.70;95.20
19033;DHT22;9649;51.042;13.804;2022-07-17T09:14:13;24.60;92.30
19033;DHT22;9649;51.042;13.804;2022-07-17T09:19:26;24.60;90.90
19033;DHT22;9649;51.042;13.804;2022-07-17T09:24:40;24.90;88.00
19033;DHT22;9649;51.042;13.804;2022-07-17T09:29:53;26.20;82.10
19033;DHT22;9649;51.042;13.804;2022-07-17T09:34:57;27.30;76.00
19033;DHT22;9649;51.042;13.804;2022-07-17T09:40:01;30.20;66.90
19033;DHT22;9649;51.042;13.804;2022-07-17T09:45:08;30.90;60.80
19033;DHT22;9649;51.042;13.804;2022-07-17T09:50:12;34.80;51.60
19033;DHT22;9649;51.042;13.804;2022-07-17T09:55:16;37.50;43.20
19033;DHT22;9649;51.042;13.804;2022-07-17T10:00:40;38.10;37.80
19033;DHT22;9649;51.042;13.804;2022-07-17T10:05:44;34.30;39.10
19033;DHT22;9649;51.042;13.804;2022-07-17T10:10:47;33.60;40.70
19033;DHT22;9649;51.042;13.804;2022-07-17T10:15:52;33.30;41.00
19033;DHT22;9649;51.042;13.804;2022-07-17T10:21:06;35.60;38.90
19033;DHT22;9649;51.042;13.804;2022-07-17T10:26:09;37.30;35.10
19033;DHT22;9649;51.042;13.804;2022-07-17T10:31:25;36.00;35.40
19033;DHT22;9649;51.042;13.804;2022-07-17T10:36:36;39.30;34.10
19033;DHT22;9649;51.042;13.804;2022-07-17T10:41:39;38.60;31.60
19033;DHT22;9649;51.042;13.804;2022-07-17T10:46:44;39.80;30.30
19033;DHT22;9649;51.042;13.804;2022-07-17T10:51:47;40.20;29.50
19033;DHT22;9649;51.042;13.804;2022-07-17T10:56:50;41.30;28.10
19033;DHT22;9649;51.042;13.804;2022-07-17T11:01:57;41.90;27.10
19033;DHT22;9649;51.042;13.804;2022-07-17T11:07:06;42.20;26.00
19033;DHT22;9649;51.042;13.804;2022-07-17T11:12:09;38.40;28.70
19033;DHT22;9649;51.042;13.804;2022-07-17T11:17:13;39.40;28.40
19033;DHT22;9649;51.042;13.804;2022-07-17T11:22:23;43.90;26.90
19033;DHT22;9649;51.042;13.804;2022-07-17T11:27:28;44.50;24.20
19033;DHT22;9649;51.042;13.804;2022-07-17T11:32:33;40.60;25.70
19033;DHT22;9649;51.042;13.804;2022-07-17T11:37:36;39.00;27.20
19033;DHT22;9649;51.042;13.804;2022-07-17T11:42:40;37.20;27.30
19033;DHT22;9649;51.042;13.804;2022-07-17T11:47:44;36.00;28.70
19033;DHT22;9649;51.042;13.804;2022-07-17T11:52:50;37.00;28.50
19033;DHT22;9649;51.042;13.804;2022-07-17T11:57:53;37.20;27.40
19033;DHT22;9649;51.042;13.804;2022-07-17T12:03:00;34.80;29.70
19033;DHT22;9649;51.042;13.804;2022-07-17T12:08:07;34.80;29.80
19033;DHT22;9649;51.042;13.804;2022-07-17T12:13:10;33.80;30.50
19033;DHT22;9649;51.042;13.804;2022-07-17T12:18:22;36.10;29.10
19033;DHT22;9649;51.042;13.804;2022-07-17T12:23:30;38.50;27.70
19033;DHT22;9649;51.042;13.804;2022-07-17T12:28:33;40.10;27.20
19033;DHT22;9649;51.042;13.804;2022-07-17T12:33:37;42.40;24.30
19033;DHT22;9649;51.042;13.804;2022-07-17T12:38:40;42.50;24.00
19033;DHT22;9649;51.042;13.804;2022-07-17T12:43:43;43.80;23.90
19033;DHT22;9649;51.042;13.804;2022-07-17T12:48:48;43.30;23.50
19033;DHT22;9649;51.042;13.804;2022-07-17T12:53:50;43.10;24.10
19033;DHT22;9649;51.042;13.804;2022-07-17T12:58:53;42.90;23.10
19033;DHT22;9649;51.042;13.804;2022-07-17T13:04:04;41.50;22.50
19033;DHT22;9649;51.042;13.804;2022-07-17T13:09:07;42.60;23.20
19033;DHT22;9649;51.042;13.804;2022-07-17T13:14:10;41.50;22.60
19033;DHT22;9649;51.042;13.804;2022-07-17T13:19:15;42.20;22.40
19033;DHT22;9649;51.042;13.804;2022-07-17T13:24:18;42.90;21.30
19033;DHT22;9649;51.042;13.804;2022-07-17T13:29:21;42.20;22.30
19033;DHT22;9649;51.042;13.804;2022-07-17T13:34:25;40.20;23.20
19033;DHT22;9649;51.042;13.804;2022-07-17T13:39:28;40.70;23.70
19033;DHT22;9649;51.042;13.804;2022-07-17T13:44:31;42.60;22.20
19033;DHT22;9649;51.042;13.804;2022-07-17T13:49:35;42.80;20.90
19033;DHT22;9649;51.042;13.804;2022-07-17T13:54:38;42.30;22.30
19033;DHT22;9649;51.042;13.804;2022-07-17T13:59:41;42.00;22.80
19033;DHT22;9649;51.042;13.804;2022-07-17T14:04:45;40.60;23.20
19033;DHT22;9649;51.042;13.804;2022-07-17T14:09:48;40.20;23.40
19033;DHT22;9649;51.042;13.804;2022-07-17T14:14:51;41.10;23.20
19033;DHT22;9649;51.042;13.804;2022-07-17T14:19:55;40.50;23.10
19033;DHT22;9649;51.042;13.804;2022-07-17T14:24:58;40.00;23.20
19033;DHT22;9649;51.042;13.804;2022-07-17T14:30:00;39.90;23.10
19033;DHT22;9649;51.042;13.804;2022-07-17T14:35:05;40.00;22.50
19033;DHT22;9649;51.042;13.804;2022-07-17T14:40:09;40.50;22.10
19033;DHT22;9649;51.042;13.804;2022-07-17T14:45:12;39.30;22.10
19033;DHT22;9649;51.042;13.804;2022-07-17T14:50:16;39.60;21.30
19033;DHT22;9649;51.042;13.804;2022-07-17T14:55:19;39.90;22.20
19033;DHT22;9649;51.042;13.804;2022-07-17T15:00:26;40.10;22.20
19033;DHT22;9649;51.042;13.804;2022-07-17T15:05:30;39.70;21.80
19033;DHT22;9649;51.042;13.804;2022-07-17T15:10:33;38.50;22.80
19033;DHT22;9649;51.042;13.804;2022-07-17T15:15:36;37.80;22.80
19033;DHT22;9649;51.042;13.804;2022-07-17T15:20:40;38.10;23.10
19033;DHT22;9649;51.042;13.804;2022-07-17T15:25:44;37.20;22.20
19033;DHT22;9649;51.042;13.804;2022-07-17T15:30:47;35.90;24.40
19033;DHT22;9649;51.042;13.804;2022-07-17T15:35:51;34.30;25.60
19033;DHT22;9649;51.042;13.804;2022-07-17T15:40:54;32.00;25.90
19033;DHT22;9649;51.042;13.804;2022-07-17T15:45:56;30.40;27.70
19033;DHT22;9649;51.042;13.804;2022-07-17T15:51:00;30.30;27.40
19033;DHT22;9649;51.042;13.804;2022-07-17T15:56:04;31.20;26.40
19033;DHT22;9649;51.042;13.804;2022-07-17T16:01:07;33.00;25.40
19033;DHT22;9649;51.042;13.804;2022-07-17T16:06:11;34.10;24.90
19033;DHT22;9649;51.042;13.804;2022-07-17T16:11:14;34.30;24.80
19033;DHT22;9649;51.042;13.804;2022-07-17T16:16:16;34.10;25.40
19033;DHT22;9649;51.042;13.804;2022-07-17T16:21:21;35.00;25.20
19033;DHT22;9649;51.042;13.804;2022-07-17T16:26:24;34.50;25.40
19033;DHT22;9649;51.042;13.804;2022-07-17T16:31:27;33.90;26.40
19033;DHT22;9649;51.042;13.804;2022-07-17T16:36:31;33.20;27.10
19033;DHT22;9649;51.042;13.804;2022-07-17T16:41:34;32.50;27.30
19033;DHT22;9649;51.042;13.804;2022-07-17T16:46:37;31.80;27.90
19033;DHT22;9649;51.042;13.804;2022-07-17T16:51:41;31.30;27.00
19033;DHT22;9649;51.042;13.804;2022-07-17T16:56:44;31.40;27.30
19033;DHT22;9649;51.042;13.804;2022-07-17T17:01:47;31.60;26.60
19033;DHT22;9649;51.042;13.804;2022-07-17T17:06:51;31.60;26.40
19033;DHT22;9649;51.042;13.804;2022-07-17T17:11:55;32.10;25.30
19033;DHT22;9649;51.042;13.804;2022-07-17T17:16:57;32.40;25.90
19033;DHT22;9649;51.042;13.804;2022-07-17T17:22:02;31.60;26.30
19033;DHT22;9649;51.042;13.804;2022-07-17T17:27:05;31.50;26.70
19033;DHT22;9649;51.042;13.804;2022-07-17T17:32:07;31.60;26.50
19033;DHT22;9649;51.042;13.804;2022-07-17T17:37:12;31.40;26.80
19033;DHT22;9649;51.042;13.804;2022-07-17T17:42:14;31.00;28.30
19033;DHT22;9649;51.042;13.804;2022-07-17T17:47:24;30.40;28.20
19033;DHT22;9649;51.042;13.804;2022-07-17T17:52:28;30.50;28.20
19033;DHT22;9649;51.042;13.804;2022-07-17T17:57:31;30.10;28.30
19033;DHT22;9649;51.042;13.804;2022-07-17T18:02:34;29.10;29.50
19033;DHT22;9649;51.042;13.804;2022-07-17T18:07:38;28.10;30.50
19033;DHT22;9649;51.042;13.804;2022-07-17T18:12:41;27.30;31.60
19033;DHT22;9649;51.042;13.804;2022-07-17T18:17:44;26.80;33.20
19033;DHT22;9649;51.042;13.804;2022-07-17T18:22:51;26.60;33.30
19033;DHT22;9649;51.042;13.804;2022-07-17T18:27:53;26.60;32.80
19033;DHT22;9649;51.042;13.804;2022-07-17T18:32:56;26.30;33.50
19033;DHT22;9649;51.042;13.804;2022-07-17T18:38:00;26.00;34.50
19033;DHT22;9649;51.042;13.804;2022-07-17T18:43:03;25.70;34.50
19033;DHT22;9649;51.042;13.804;2022-07-17T18:48:08;25.20;35.30
19033;DHT22;9649;51.042;13.804;2022-07-17T18:53:12;24.70;36.00
19033;DHT22;9649;51.042;13.804;2022-07-17T18:58:15;24.20;37.10
19033;DHT22;9649;51.042;13.804;2022-07-17T19:03:18;23.80;38.00
19033;DHT22;9649;51.042;13.804;2022-07-17T19:08:22;23.30;39.70
19033;DHT22;9649;51.042;13.804;2022-07-17T19:13:25;23.00;40.70
19033;DHT22;9649;51.042;13.804;2022-07-17T19:18:28;22.60;42.10
19033;DHT22;9649;51.042;13.804;2022-07-17T19:23:32;22.40;42.70
19033;DHT22;9649;51.042;13.804;2022-07-17T19:28:36;22.00;44.20
19033;DHT22;9649;51.042;13.804;2022-07-17T19:33:56;21.70;45.50
19033;DHT22;9649;51.042;13.804;2022-07-17T19:39:00;21.70;46.50
19033;DHT22;9649;51.042;13.804;2022-07-17T19:44:03;21.50;47.40
19033;DHT22;9649;51.042;13.804;2022-07-17T19:49:11;21.10;48.80
19033;DHT22;9649;51.042;13.804;2022-07-17T19:54:15;20.80;50.30
19033;DHT22;9649;51.042;13.804;2022-07-17T19:59:18;20.80;50.70
19033;DHT22;9649;51.042;13.804;2022-07-17T20:04:22;20.60;52.10
19033;DHT22;9649;51.042;13.804;2022-07-17T20:09:27;20.20;53.40
19033;DHT22;9649;51.042;13.804;2022-07-17T20:14:29;20.00;54.50
19033;DHT22;9649;51.042;13.804;2022-07-17T20:19:32;19.80;55.10
19033;DHT22;9649;51.042;13.804;2022-07-17T20:24:38;19.80;56.10
19033;DHT22;9649;51.042;13.804;2022-07-17T20:29:41;19.70;56.60
19033;DHT22;9649;51.042;13.804;2022-07-17T20:34:44;19.50;57.30
19033;DHT22;9649;51.042;13.804;2022-07-17T20:39:48;19.40;58.40
19033;DHT22;9649;51.042;13.804;2022-07-17T20:44:51;19.20;59.10
19033;DHT22;9649;51.042;13.804;2022-07-17T20:49:54;19.20;59.30
19033;DHT22;9649;51.042;13.804;2022-07-17T20:54:58;19.10;60.60
19033;DHT22;9649;51.042;13.804;2022-07-17T21:00:01;19.00;61.60
19033;DHT22;9649;51.042;13.804;2022-07-17T21:05:05;18.70;63.60
19033;DHT22;9649;51.042;13.804;2022-07-17T21:10:15;18.60;65.70
19033;DHT22;9649;51.042;13.804;2022-07-17T21:15:18;18.60;66.30
19033;DHT22;9649;51.042;13.804;2022-07-17T21:20:22;18.50;67.10
19033;DHT22;9649;51.042;13.804;2022-07-17T21:25:26;18.60;67.20
19033;DHT22;9649;51.042;13.804;2022-07-17T21:30:29;18.60;68.10
19033;DHT22;9649;51.042;13.804;2022-07-17T21:35:33;18.60;68.60
19033;DHT22;9649;51.042;13.804;2022-07-17T21:40:37;18.80;68.50
19033;DHT22;9649;51.042;13.804;2022-07-17T21:45:40;18.50;69.80
19033;DHT22;9649;51.042;13.804;2022-07-17T21:50:43;18.20;70.90
19033;DHT22;9649;51.042;13.804;2022-07-17T21:55:47;18.20;72.60
19033;DHT22;9649;51.042;13.804;2022-07-17T22:00:51;18.20;72.00
19033;DHT22;9649;51.042;13.804;2022-07-17T22:05:54;18.20;72.20
19033;DHT22;9649;51.042;13.804;2022-07-17T22:11:02;18.00;74.20
19033;DHT22;9649;51.042;13.804;2022-07-17T22:16:06;17.90;75.30
19033;DHT22;9649;51.042;13.804;2022-07-17T22:21:14;17.60;77.00
19033;DHT22;9649;51.042;13.804;2022-07-17T22:26:20;17.70;76.30
19033;DHT22;9649;51.042;13.804;2022-07-17T22:31:24;17.60;76.90
19033;DHT22;9649;51.042;13.804;2022-07-17T22:36:27;17.30;79.20
19033;DHT22;9649;51.042;13.804;2022-07-17T22:41:31;17.10;81.50
19033;DHT22;9649;51.042;13.804;2022-07-17T22:46:34;17.20;81.60
19033;DHT22;9649;51.042;13.804;2022-07-17T22:51:37;17.10;82.80
19033;DHT22;9649;51.042;13.804;2022-07-17T22:56:42;16.90;85.10
19033;DHT22;9649;51.042;13.804;2022-07-17T23:01:45;16.90;85.50
19033;DHT22;9649;51.042;13.804;2022-07-17T23:06:48;16.70;86.40
19033;DHT22;9649;51.042;13.804;2022-07-17T23:11:53;16.40;89.70
19033;DHT22;9649;51.042;13.804;2022-07-17T23:16:56;16.30;90.50
19033;DHT22;9649;51.042;13.804;2022-07-17T23:21:59;16.40;90.30
19033;DHT22;9649;51.042;13.804;2022-07-17T23:27:03;16.20;91.30
19033;DHT22;9649;51.042;13.804;2022-07-17T23:32:06;16.10;91.80
19033;DHT22;9649;51.042;13.804;2022-07-17T23:37:24;15.80;93.20
19033;DHT22;9649;51.042;13.804;2022-07-17T23:47:38;15.80;95.50
19033;DHT22;9649;51.042;13.804;2022-07-17T23:52:41;15.90;94.70
19033;DHT22;9649;51.042;13.804;2022-07-17T23:57:44;16.20;94.30
